Time;durP1;ratioP1;P1;durP2;ratioP2;P2;SDS_P1;SDS_P2;PMS_P1;PMS_P2;Temp;Humidity;BMP_temperature;BMP_pressure;BME280_temperature;BME280_humidity;BME280_pressure;Samples;Min_cycle;Max_cycle;Signal;HPM_P1;HPM_P2
2020/12/22 17:15:13;;;;;;;6.07;1.63;;;8.00;99.90;;;;;;5089795;27;20277;-68
2020/12/22 17:17:39;;;;;;;5.80;1.87;;;7.90;99.90;;;;;;5088449;28;20175;-69
2020/12/22 17:20:05;;;;;;;13.77;2.60;;;7.90;99.90;;;;;;5088422;28;20339;-68
2020/12/22 17:22:31;;;;;;;7.67;2.23;;;7.90;99.90;;;;;;5085592;28;20175;-67
2020/12/22 17:24:59;;;;;;;13.37;2.53;;;7.90;99.90;;;;;;5067932;28;20177;-69
2020/12/22 17:27:25;;;;;;;9.07;2.17;;;7.90;99.90;;;;;;5071748;22;20662;-71
2020/12/22 17:29:51;;;;;;;8.57;3.13;;;7.90;99.90;;;;;;5062800;28;20256;-64
2020/12/22 17:32:18;;;;;;;9.80;2.60;;;7.80;99.90;;;;;;5045315;28;20266;-63
2020/12/22 17:34:44;;;;;;;11.87;2.10;;;7.80;99.90;;;;;;5047174;28;20586;-63
2020/12/22 17:37:10;;;;;;;7.87;2.53;;;7.80;99.90;;;;;;5034063;28;20218;-63
2020/12/22 17:39:36;;;;;;;9.00;2.03;;;7.70;99.90;;;;;;5027754;28;20520;-63
2020/12/22 17:42:02;;;;;;;7.30;1.90;;;7.70;99.90;;;;;;5027039;28;20175;-64
2020/12/22 17:44:27;;;;;;;9.20;1.80;;;7.70;99.90;;;;;;5027349;28;20634;-63
2020/12/22 17:46:54;;;;;;;10.60;2.70;;;7.70;99.90;;;;;;5043958;28;20205;-61
2020/12/22 17:49:20;;;;;;;11.37;2.63;;;7.60;99.90;;;;;;5039560;28;20179;-62
2020/12/22 17:51:46;;;;;;;3.30;1.10;;;7.60;99.90;;;;;;5045048;28;20296;-62
2020/12/22 17:54:11;;;;;;;14.87;2.30;;;7.60;99.90;;;;;;5046974;28;20673;-61
2020/12/22 17:56:37;;;;;;;10.93;2.50;;;7.60;99.90;;;;;;5046438;28;20665;-62
2020/12/22 17:59:04;;;;;;;10.47;2.23;;;7.60;99.90;;;;;;5047252;28;20201;-61
2020/12/22 18:01:29;;;;;;;6.77;2.63;;;7.50;99.90;;;;;;5046066;28;20181;-62
2020/12/22 18:03:55;;;;;;;8.13;2.70;;;7.50;99.90;;;;;;5047911;28;20173;-62
2020/12/22 18:06:20;;;;;;;10.47;2.60;;;7.50;99.90;;;;;;5046225;28;20288;-61
2020/12/22 18:08:46;;;;;;;8.77;2.73;;;7.40;99.90;;;;;;5045875;28;20189;-62
2020/12/22 18:11:27;;;;;;;14.07;2.77;;;7.50;99.90;;;;;;5044951;28;20186;-62
2020/12/22 18:13:54;;;;;;;12.23;2.37;;;7.40;99.90;;;;;;5046088;28;20549;-64
2020/12/22 18:16:20;;;;;;;10.17;2.70;;;7.40;99.90;;;;;;5047190;28;20201;-62
2020/12/22 18:18:47;;;;;;;10.40;2.60;;;7.40;99.90;;;;;;5046483;28;20231;-62
2020/12/22 18:21:17;;;;;;;11.97;2.67;;;7.40;99.90;;;;;;5045867;28;20177;-63
2020/12/22 18:23:42;;;;;;;9.50;2.17;;;7.40;99.90;;;;;;5046320;28;20606;-63
2020/12/22 18:26:08;;;;;;;7.67;3.20;;;7.40;99.90;;;;;;5034675;28;20224;-60
2020/12/22 18:28:34;;;;;;;9.27;2.53;;;7.40;99.90;;;;;;5032810;28;20193;-61
2020/12/22 18:31:00;;;;;;;10.57;2.83;;;7.40;99.90;;;;;;5047831;28;20569;-60
2020/12/22 18:33:25;;;;;;;12.07;2.43;;;7.50;99.90;;;;;;5032067;28;20230;-59
2020/12/22 18:35:51;;;;;;;9.23;2.73;;;7.40;99.90;;;;;;5031761;28;20202;-67
2020/12/22 18:38:17;;;;;;;8.63;2.80;;;7.40;99.90;;;;;;5031002;28;20678;-66
2020/12/22 18:40:43;;;;;;;10.93;2.50;;;7.40;99.90;;;;;;5032400;28;20179;-66
2020/12/22 18:43:09;;;;;;;3.27;1.33;;;7.40;99.90;;;;;;5033066;28;20739;-67
2020/12/22 18:45:34;;;;;;;9.07;2.50;;;7.40;99.90;;;;;;5033300;28;20179;-66
2020/12/22 18:48:01;;;;;;;9.27;2.03;;;7.40;99.90;;;;;;5032959;28;20205;-66
2020/12/22 18:50:28;;;;;;;8.67;2.20;;;7.40;99.90;;;;;;5032469;28;20202;-66
2020/12/22 18:52:53;;;;;;;7.73;2.10;;;7.40;99.90;;;;;;5032826;28;20732;-66
2020/12/22 18:55:19;;;;;;;9.67;2.03;;;7.40;99.90;;;;;;5032827;28;20235;-66
2020/12/22 18:57:44;;;;;;;7.47;2.13;;;7.30;99.90;;;;;;5032594;28;20270;-66
2020/12/22 19:00:14;;;;;;;7.43;2.33;;;7.30;99.90;;;;;;5033802;28;20185;-67
2020/12/22 19:02:40;;;;;;;6.37;1.43;;;7.30;99.90;;;;;;5035510;28;20162;-66
2020/12/22 19:05:06;;;;;;;6.73;2.00;;;7.30;99.90;;;;;;5035467;28;20261;-67
2020/12/22 19:07:32;;;;;;;6.43;1.83;;;7.30;99.90;;;;;;5034038;28;20666;-66
2020/12/22 19:09:58;;;;;;;7.07;1.73;;;7.30;99.90;;;;;;5032872;28;20174;-66
2020/12/22 19:12:23;;;;;;;3.57;1.20;;;7.20;99.90;;;;;;5030022;28;20659;-66
2020/12/22 19:14:49;;;;;;;6.80;2.53;;;7.30;99.90;;;;;;5022371;28;20206;-72
2020/12/22 19:17:15;;;;;;;8.97;2.33;;;7.30;99.90;;;;;;5031651;28;20640;-68
2020/12/22 19:19:40;;;;;;;9.83;2.03;;;7.30;99.90;;;;;;5027422;28;20187;-67
2020/12/22 19:22:06;;;;;;;4.80;1.77;;;7.20;99.90;;;;;;5027841;28;20650;-69
2020/12/22 19:24:32;;;;;;;10.83;2.30;;;7.30;99.90;;;;;;5018577;28;20722;-65
2020/12/22 19:26:59;;;;;;;6.30;2.40;;;7.20;99.90;;;;;;5022933;28;20203;-67
2020/12/22 19:29:25;;;;;;;7.83;1.50;;;7.20;99.90;;;;;;5026310;28;20258;-63
2020/12/22 19:31:54;;;;;;;8.07;2.67;;;7.20;99.90;;;;;;5021337;28;20208;-63
2020/12/22 19:34:20;;;;;;;10.23;2.37;;;7.20;99.90;;;;;;5025155;28;20221;-63
2020/12/22 19:36:49;;;;;;;7.67;2.33;;;7.20;99.90;;;;;;5019238;28;20199;-63
2020/12/22 19:39:14;;;;;;;7.03;2.37;;;7.20;99.90;;;;;;5023805;28;20174;-63
2020/12/22 19:41:44;;;;;;;9.67;3.27;;;7.20;99.90;;;;;;5018079;28;20665;-63
2020/12/22 19:44:09;;;;;;;7.70;2.30;;;7.20;99.90;;;;;;5019121;28;20313;-63
2020/12/22 19:46:35;;;;;;;6.03;1.90;;;7.20;99.90;;;;;;5023294;28;20293;-63
2020/12/22 19:49:01;;;;;;;9.40;2.03;;;7.20;99.90;;;;;;5024433;28;20182;-63
2020/12/22 19:51:26;;;;;;;6.07;1.90;;;7.20;99.90;;;;;;5024780;28;20717;-64
2020/12/22 19:53:52;;;;;;;10.23;2.60;;;7.20;99.90;;;;;;5017566;28;20212;-64
2020/12/22 19:56:17;;;;;;;7.27;1.80;;;7.20;99.90;;;;;;5020281;28;20306;-64
2020/12/22 19:58:42;;;;;;;11.97;1.90;;;7.20;99.90;;;;;;5025200;28;20182;-64
2020/12/22 20:01:14;;;;;;;4.70;1.27;;;7.10;99.90;;;;;;5017779;28;20185;-64
2020/12/22 20:03:39;;;;;;;11.83;1.97;;;7.10;99.90;;;;;;5023323;28;20221;-63
2020/12/22 20:06:05;;;;;;;6.23;1.57;;;7.00;99.90;;;;;;5023319;28;20203;-63
2020/12/22 20:08:32;;;;;;;6.30;1.63;;;6.90;99.90;;;;;;5029556;28;20190;-63
2020/12/22 20:10:58;;;;;;;8.27;2.23;;;6.80;99.90;;;;;;5026122;28;20692;-64
2020/12/22 20:13:23;;;;;;;7.50;2.23;;;6.80;99.90;;;;;;5023028;28;20351;-62
2020/12/22 20:15:49;;;;;;;8.27;2.30;;;6.70;99.90;;;;;;5019574;28;20643;-70
2020/12/22 20:18:14;;;;;;;8.10;2.73;;;6.70;99.90;;;;;;5018641;28;20447;-68
2020/12/22 20:20:39;;;;;;;8.93;2.27;;;6.70;99.90;;;;;;5016944;28;20620;-68
2020/12/22 20:23:05;;;;;;;6.83;1.67;;;6.70;99.90;;;;;;5019160;28;20233;-68
2020/12/22 20:25:30;;;;;;;8.13;2.00;;;6.70;99.90;;;;;;5023878;28;20661;-69
2020/12/22 20:27:56;;;;;;;8.33;2.07;;;6.60;99.90;;;;;;5025444;28;20225;-68
2020/12/22 20:30:21;;;;;;;7.07;2.27;;;6.70;99.90;;;;;;5022452;28;20170;-70
2020/12/22 20:32:47;;;;;;;8.43;2.00;;;6.80;99.90;;;;;;5027005;28;20221;-70
2020/12/22 20:35:12;;;;;;;6.37;2.40;;;6.80;99.90;;;;;;5017759;28;20705;-69
2020/12/22 20:37:38;;;;;;;12.43;2.40;;;6.80;99.90;;;;;;5019723;28;20352;-69
2020/12/22 20:40:04;;;;;;;9.27;2.83;;;6.80;99.90;;;;;;5021538;28;20183;-69
2020/12/22 20:42:30;;;;;;;10.33;2.33;;;6.70;99.90;;;;;;5019605;28;20186;-68
2020/12/22 20:44:55;;;;;;;4.07;1.53;;;6.70;99.90;;;;;;5024153;28;20249;-68
2020/12/22 20:47:21;;;;;;;7.83;2.93;;;6.70;99.90;;;;;;5015696;28;20359;-69
2020/12/22 20:49:47;;;;;;;8.43;2.00;;;6.70;99.90;;;;;;5021652;28;20186;-69
2020/12/22 20:52:17;;;;;;;5.57;1.70;;;6.70;99.90;;;;;;5024578;28;20194;-69
2020/12/22 20:54:43;;;;;;;6.27;1.73;;;6.80;99.90;;;;;;5016282;28;20202;-68
2020/12/22 20:57:08;;;;;;;8.20;1.93;;;6.70;99.90;;;;;;5025535;28;20194;-68
2020/12/22 20:59:33;;;;;;;7.47;2.00;;;6.70;99.90;;;;;;5026675;28;20183;-67
2020/12/22 21:01:59;;;;;;;8.30;2.30;;;6.70;99.90;;;;;;5022810;28;20182;-67
2020/12/22 21:04:24;;;;;;;4.90;1.73;;;6.70;99.90;;;;;;5018777;28;20178;-67
2020/12/22 21:06:50;;;;;;;10.50;2.30;;;6.70;99.90;;;;;;5024302;28;20276;-68
2020/12/22 21:09:16;;;;;;;9.53;1.80;;;6.80;99.90;;;;;;5018486;28;20189;-70
2020/12/22 21:11:41;;;;;;;5.80;2.20;;;6.70;99.90;;;;;;5029391;28;20257;-68
2020/12/22 21:14:07;;;;;;;5.50;2.10;;;6.70;99.90;;;;;;5027129;28;20206;-70
2020/12/22 21:16:32;;;;;;;9.73;1.87;;;6.70;99.90;;;;;;5018140;28;20217;-68
2020/12/22 21:18:58;;;;;;;9.90;2.27;;;6.70;99.90;;;;;;5020615;28;20178;-67
2020/12/22 21:21:25;;;;;;;6.93;2.07;;;6.70;99.90;;;;;;5015370;28;20206;-67
2020/12/22 21:23:51;;;;;;;10.70;2.17;;;6.70;99.90;;;;;;5023536;28;20624;-68
2020/12/22 21:26:18;;;;;;;8.97;1.90;;;6.60;99.90;;;;;;5020932;28;20221;-71
2020/12/22 21:28:44;;;;;;;7.53;2.00;;;6.70;99.90;;;;;;5020750;28;20187;-71
2020/12/22 21:31:15;;;;;;;6.50;1.83;;;6.70;99.90;;;;;;5025222;28;20207;-69
2020/12/22 21:33:45;;;;;;;12.73;2.17;;;6.70;99.90;;;;;;5026834;28;20244;-70
2020/12/22 21:36:12;;;;;;;7.93;2.23;;;6.70;99.90;;;;;;5015929;28;20202;-70
2020/12/22 21:38:38;;;;;;;6.67;2.10;;;6.70;99.90;;;;;;5023297;28;20183;-65
2020/12/22 21:41:04;;;;;;;7.53;2.20;;;6.70;99.90;;;;;;5024873;28;20178;-75
2020/12/22 21:43:30;;;;;;;7.77;1.77;;;6.70;99.90;;;;;;5016526;28;20607;-72
2020/12/22 21:45:55;;;;;;;7.10;1.90;;;6.70;99.90;;;;;;5019777;28;20275;-72
2020/12/22 21:48:21;;;;;;;6.67;1.97;;;6.70;99.90;;;;;;5025036;28;20740;-72
2020/12/22 21:50:46;;;;;;;7.57;2.33;;;6.70;99.90;;;;;;5018804;28;20190;-74
2020/12/22 21:53:12;;;;;;;10.00;2.27;;;6.70;99.90;;;;;;5019477;28;20183;-72
2020/12/22 21:55:37;;;;;;;9.67;2.10;;;6.70;99.90;;;;;;5023955;28;20179;-72
2020/12/22 21:58:03;;;;;;;5.93;1.53;;;6.70;99.90;;;;;;5016025;28;20254;-72
2020/12/22 22:00:28;;;;;;;7.23;2.23;;;6.70;99.90;;;;;;5018930;28;20265;-67
2020/12/22 22:02:55;;;;;;;8.23;1.60;;;6.60;99.90;;;;;;5022843;28;20179;-67
2020/12/22 22:05:21;;;;;;;5.13;1.43;;;6.60;99.90;;;;;;5026534;28;20186;-67
2020/12/22 22:07:47;;;;;;;11.63;2.50;;;6.60;99.90;;;;;;5025980;28;20628;-66
2020/12/22 22:10:12;;;;;;;5.60;1.80;;;6.60;99.90;;;;;;5025436;28;20186;-66
2020/12/22 22:12:38;;;;;;;7.03;1.50;;;6.60;99.90;;;;;;5024889;28;20202;-66
2020/12/22 22:15:04;;;;;;;8.07;2.10;;;6.60;99.90;;;;;;5025044;28;20229;-65
2020/12/22 22:17:29;;;;;;;5.03;1.80;;;6.60;99.90;;;;;;5019387;28;20199;-67
2020/12/22 22:19:55;;;;;;;10.87;2.13;;;6.60;99.90;;;;;;5029031;28;20182;-66
2020/12/22 22:22:20;;;;;;;10.30;2.33;;;6.50;99.90;;;;;;5026175;28;20198;-67
2020/12/22 22:24:45;;;;;;;6.47;1.70;;;6.50;99.90;;;;;;5024649;28;20186;-66
2020/12/22 22:27:11;;;;;;;7.77;1.90;;;6.50;99.90;;;;;;5021249;28;20316;-67
2020/12/22 22:29:37;;;;;;;5.70;1.70;;;6.50;99.90;;;;;;5028042;28;20194;-66
2020/12/22 22:32:03;;;;;;;10.07;1.87;;;6.40;99.90;;;;;;5024377;28;20220;-65
2020/12/22 22:34:28;;;;;;;15.83;2.23;;;6.50;99.90;;;;;;5022507;28;20249;-65
2020/12/22 22:36:54;;;;;;;5.07;1.60;;;6.50;99.90;;;;;;5026260;28;20194;-64
2020/12/22 22:39:19;;;;;;;5.53;1.40;;;6.50;99.90;;;;;;5018651;28;20181;-64
2020/12/22 22:41:45;;;;;;;13.43;1.77;;;6.50;99.90;;;;;;5031133;28;20182;-64
2020/12/22 22:44:11;;;;;;;6.77;1.80;;;6.50;99.90;;;;;;5026884;28;20191;-63
2020/12/22 22:46:37;;;;;;;6.13;1.90;;;6.50;99.90;;;;;;5019900;28;20212;-64
2020/12/22 22:49:02;;;;;;;4.83;1.90;;;6.40;99.90;;;;;;5021907;28;20245;-66
2020/12/22 22:51:28;;;;;;;7.57;1.97;;;6.40;99.90;;;;;;5016221;28;20218;-65
2020/12/22 22:53:53;;;;;;;6.23;2.50;;;6.40;99.90;;;;;;5026919;28;20211;-65
2020/12/22 22:56:20;;;;;;;7.83;2.10;;;6.40;99.90;;;;;;5023446;28;20203;-65
2020/12/22 22:58:46;;;;;;;7.00;2.30;;;6.40;99.90;;;;;;5026770;28;20213;-65
2020/12/22 23:01:12;;;;;;;7.93;2.10;;;6.40;99.90;;;;;;5021767;28;20646;-65
2020/12/22 23:03:38;;;;;;;4.77;1.70;;;6.40;99.90;;;;;;5020379;28;20198;-65
2020/12/22 23:06:15;;;;;;;7.00;2.07;;;6.40;99.90;;;;;;5025236;28;20190;-64
2020/12/22 23:08:41;;;;;;;8.27;2.17;;;6.40;99.90;;;;;;5022784;28;20194;-66
2020/12/22 23:11:09;;;;;;;6.33;2.00;;;6.40;99.90;;;;;;5021510;28;20197;-65
2020/12/22 23:13:35;;;;;;;11.27;3.00;;;6.50;99.90;;;;;;5025415;28;20263;-65
2020/12/22 23:16:02;;;;;;;6.90;2.10;;;6.40;99.90;;;;;;5028866;28;20714;-65
2020/12/22 23:18:28;;;;;;;6.80;1.83;;;6.40;99.90;;;;;;5024300;28;20323;-64
2020/12/22 23:21:00;;;;;;;8.67;1.77;;;6.50;99.90;;;;;;5026567;28;20189;-65
2020/12/22 23:23:27;;;;;;;7.50;1.90;;;6.40;99.90;;;;;;5019061;28;20194;-65
2020/12/22 23:25:53;;;;;;;7.13;1.70;;;6.40;99.90;;;;;;5023982;28;20191;-65
2020/12/22 23:28:22;;;;;;;8.73;1.67;;;6.40;99.90;;;;;;5016235;22;20243;-72
2020/12/22 23:30:49;;;;;;;9.27;1.77;;;6.40;99.90;;;;;;4992149;28;20672;-70
2020/12/22 23:33:15;;;;;;;7.67;1.80;;;6.40;99.90;;;;;;4991098;28;20199;-70
2020/12/22 23:35:40;;;;;;;7.17;2.10;;;6.40;99.90;;;;;;4991006;28;20412;-69
2020/12/22 23:38:06;;;;;;;7.30;1.77;;;6.40;99.90;;;;;;5004209;28;20306;-70
2020/12/22 23:40:31;;;;;;;9.93;2.03;;;6.40;99.90;;;;;;5000628;28;20278;-70
2020/12/22 23:42:57;;;;;;;10.97;2.03;;;6.40;99.90;;;;;;4999644;28;20175;-70
2020/12/22 23:45:23;;;;;;;7.67;1.70;;;6.40;99.90;;;;;;5004844;28;20287;-70
2020/12/22 23:47:48;;;;;;;7.53;1.97;;;6.40;99.90;;;;;;5001034;28;20221;-71
2020/12/22 23:50:14;;;;;;;6.30;2.03;;;6.40;99.90;;;;;;4994675;28;20187;-71
2020/12/22 23:52:44;;;;;;;7.03;1.87;;;6.40;99.90;;;;;;5004096;28;20191;-71
2020/12/22 23:55:11;;;;;;;4.87;1.77;;;6.40;99.90;;;;;;5002907;28;20203;-71
2020/12/22 23:57:37;;;;;;;6.70;1.63;;;6.40;99.90;;;;;;5005232;28;20218;-70
